createdAt,value
2022-12-13T00:01:19.605Z,-4.19
2022-12-13T00:03:46.068Z,-4.16
2022-12-13T00:06:12.716Z,-4.15
2022-12-13T00:08:39.165Z,-4.18
2022-12-13T00:11:07.917Z,-4.14
2022-12-13T00:13:34.451Z,-4.08
2022-12-13T00:16:03.302Z,-4.10
2022-12-13T00:18:29.685Z,-4.11
2022-12-13T00:20:56.651Z,-4.11
2022-12-13T00:23:23.166Z,-4.16
2022-12-13T00:25:49.566Z,-4.17
2022-12-13T00:28:16.084Z,-4.18
2022-12-13T00:30:42.808Z,-4.18
2022-12-13T00:33:09.280Z,-4.23
2022-12-13T00:35:41.950Z,-4.18
2022-12-13T00:38:08.454Z,-4.11
2022-12-13T00:40:34.888Z,-4.11
2022-12-13T00:43:01.281Z,-4.15
2022-12-13T00:45:27.677Z,-4.18
2022-12-13T00:47:54.071Z,-4.17
2022-12-13T00:50:20.476Z,-4.21
2022-12-13T00:52:46.845Z,-4.24
2022-12-13T00:55:13.462Z,-4.24
2022-12-13T00:57:40.105Z,-4.26
2022-12-13T01:00:07.155Z,-4.28
2022-12-13T01:02:33.565Z,-4.30
2022-12-13T01:04:59.943Z,-4.35
2022-12-13T01:07:26.543Z,-4.41
2022-12-13T01:09:52.979Z,-4.44
2022-12-13T01:12:19.395Z,-4.37
2022-12-13T01:14:45.794Z,-4.34
2022-12-13T01:17:12.219Z,-4.29
2022-12-13T01:19:38.643Z,-4.25
2022-12-13T01:22:05.451Z,-4.16
2022-12-13T01:24:31.910Z,-4.08
2022-12-13T01:26:58.331Z,-4.11
2022-12-13T01:29:25.916Z,-4.08
2022-12-13T01:31:52.807Z,-4.02
2022-12-13T01:34:20.150Z,-3.91
2022-12-13T01:36:47.131Z,-3.94
2022-12-13T01:39:15.705Z,-3.93
2022-12-13T01:41:45.974Z,-3.95
2022-12-13T01:44:31.063Z,-3.95
2022-12-13T01:46:57.432Z,-3.88
2022-12-13T01:49:23.837Z,-3.89
2022-12-13T01:51:55.925Z,-3.85
2022-12-13T01:54:33.573Z,-3.80
2022-12-13T01:57:01.143Z,-3.96
2022-12-13T01:59:27.619Z,-3.89
2022-12-13T02:01:54.000Z,-3.83
2022-12-13T02:04:30.286Z,-3.75
2022-12-13T02:06:57.006Z,-3.67
2022-12-13T02:09:23.458Z,-3.61
2022-12-13T02:11:49.914Z,-3.60
2022-12-13T02:14:16.308Z,-3.61
2022-12-13T02:17:14.603Z,-3.65
2022-12-13T02:19:57.433Z,-3.68
2022-12-13T02:22:54.725Z,-3.72
2022-12-13T02:25:43.014Z,-3.63
2022-12-13T02:28:31.739Z,-3.53
2022-12-13T02:31:28.438Z,-3.42
2022-12-13T02:34:13.836Z,-3.35
2022-12-13T02:36:49.132Z,-3.35
2022-12-13T02:39:30.161Z,-3.31
2022-12-13T02:42:22.009Z,-3.23
2022-12-13T02:45:08.940Z,-3.16
2022-12-13T02:47:37.694Z,-3.17
2022-12-13T02:50:07.160Z,-3.20
2022-12-13T02:52:33.542Z,-3.24
2022-12-13T02:54:59.926Z,-3.26
2022-12-13T02:57:32.420Z,-3.28
2022-12-13T03:00:13.417Z,-3.28
2022-12-13T03:03:12.925Z,-3.27
2022-12-13T03:05:45.750Z,-3.19
2022-12-13T03:08:27.526Z,-3.13
2022-12-13T03:11:04.828Z,-3.12
2022-12-13T03:13:44.806Z,-3.14
2022-12-13T03:16:23.450Z,-3.13
2022-12-13T03:18:52.011Z,-3.08
2022-12-13T03:21:18.439Z,-3.01
2022-12-13T03:23:45.789Z,-3.03
2022-12-13T03:26:23.579Z,-3.03
2022-12-13T03:28:50.151Z,-3.01
2022-12-13T03:31:16.672Z,-3.02
2022-12-13T03:33:43.102Z,-3.04
2022-12-13T03:36:09.634Z,-3.01
2022-12-13T03:38:36.337Z,-2.89
2022-12-13T03:41:05.734Z,-3.01
2022-12-13T03:43:32.121Z,-3.04
2022-12-13T03:45:58.538Z,-3.06
2022-12-13T03:48:24.947Z,-3.07
2022-12-13T03:50:52.315Z,-3.12
2022-12-13T03:53:22.450Z,-3.20
2022-12-13T03:55:58.686Z,-3.26
2022-12-13T03:58:27.443Z,-3.34
2022-12-13T04:01:03.810Z,-3.30
2022-12-13T04:03:30.259Z,-3.28
2022-12-13T04:05:56.698Z,-3.35
2022-12-13T04:08:23.176Z,-3.36
2022-12-13T04:10:49.630Z,-3.32
2022-12-13T04:13:16.020Z,-3.31
2022-12-13T04:15:42.439Z,-3.32
2022-12-13T04:18:08.823Z,-3.27
2022-12-13T04:20:35.200Z,-3.26
2022-12-13T04:23:10.409Z,-3.26
2022-12-13T04:25:37.425Z,-3.33
2022-12-13T04:28:03.814Z,-3.32
2022-12-13T04:30:30.201Z,-3.21
2022-12-13T04:32:56.610Z,-3.13
2022-12-13T04:35:23.051Z,-3.06
2022-12-13T04:37:49.445Z,-3.05
2022-12-13T04:40:21.656Z,-3.08
2022-12-13T04:42:48.557Z,-3.04
2022-12-13T04:45:20.623Z,-3.01
2022-12-13T04:47:47.012Z,-3.01
2022-12-13T04:50:13.447Z,-2.94
2022-12-13T04:52:39.857Z,-2.87
2022-12-13T04:55:06.593Z,-2.86
2022-12-13T04:57:32.998Z,-2.87
2022-12-13T04:59:59.372Z,-2.81
2022-12-13T05:02:25.841Z,-2.77
2022-12-13T05:04:53.938Z,-2.74
2022-12-13T05:07:21.374Z,-2.73
2022-12-13T05:09:47.789Z,-2.71
2022-12-13T05:12:22.884Z,-2.68
2022-12-13T05:14:50.996Z,-2.71
2022-12-13T05:17:17.388Z,-2.70
2022-12-13T05:19:43.801Z,-2.70
2022-12-13T05:22:14.793Z,-2.68
2022-12-13T05:24:44.273Z,-2.65
2022-12-13T05:27:23.939Z,-2.63
2022-12-13T05:29:57.665Z,-2.58
2022-12-13T05:32:44.098Z,-2.55
2022-12-13T05:35:22.919Z,-2.52
2022-12-13T05:37:54.340Z,-2.42
2022-12-13T05:40:28.578Z,-2.37
2022-12-13T05:43:00.742Z,-2.36
2022-12-13T05:45:28.145Z,-2.40
2022-12-13T05:47:54.531Z,-2.42
2022-12-13T05:50:20.926Z,-2.45
2022-12-13T05:52:47.305Z,-2.40
2022-12-13T05:55:14.217Z,-2.39
2022-12-13T05:57:40.868Z,-2.34
2022-12-13T06:00:29.322Z,-2.29
2022-12-13T06:02:55.059Z,-2.33
2022-12-13T06:05:21.505Z,-2.32
2022-12-13T06:07:52.135Z,-2.30
2022-12-13T06:10:21.865Z,-2.36
2022-12-13T06:12:48.727Z,-2.44
2022-12-13T06:15:22.394Z,-2.48
2022-12-13T06:17:49.429Z,-2.51
2022-12-13T06:20:24.359Z,-2.54
2022-12-13T06:22:52.212Z,-2.54
2022-12-13T06:25:30.008Z,-2.54
2022-12-13T06:27:58.816Z,-2.51
2022-12-13T06:30:27.877Z,-2.54
2022-12-13T06:32:54.309Z,-2.62
2022-12-13T06:35:28.884Z,-2.70
2022-12-13T06:38:00.883Z,-2.59
2022-12-13T06:40:28.256Z,-2.57
2022-12-13T06:42:54.661Z,-2.61
2022-12-13T06:45:21.056Z,-2.65
2022-12-13T06:47:47.470Z,-2.65
2022-12-13T06:50:13.853Z,-2.65
2022-12-13T06:52:40.254Z,-2.60
2022-12-13T06:55:06.878Z,-2.59
2022-12-13T06:57:33.498Z,-2.58
2022-12-13T07:00:00.689Z,-2.64
2022-12-13T07:02:27.270Z,-2.62
2022-12-13T07:04:54.157Z,-2.58
2022-12-13T07:07:20.570Z,-2.53
2022-12-13T07:09:46.970Z,-2.48
2022-12-13T07:12:13.377Z,-2.46
2022-12-13T07:14:40.655Z,-2.41
2022-12-13T07:17:07.750Z,-2.37
2022-12-13T07:19:35.381Z,-2.36
2022-12-13T07:22:08.613Z,-2.34
2022-12-13T07:24:35.046Z,-2.30
2022-12-13T07:27:02.368Z,-2.21
2022-12-13T07:29:28.808Z,-2.15
2022-12-13T07:31:55.177Z,-2.05
2022-12-13T07:34:28.290Z,-2.06
2022-12-13T07:36:54.721Z,-2.07
2022-12-13T07:39:23.786Z,-2.09
2022-12-13T07:41:50.180Z,-2.11
2022-12-13T07:44:16.629Z,-2.05
2022-12-13T07:46:43.044Z,-2.06
2022-12-13T07:49:09.484Z,-2.08
2022-12-13T07:51:35.889Z,-2.08
2022-12-13T07:54:06.272Z,-2.06
2022-12-13T07:56:33.382Z,-2.05
2022-12-13T07:58:59.763Z,-2.02
2022-12-13T08:01:26.228Z,-2.02
2022-12-13T08:03:52.633Z,-2.03
2022-12-13T08:06:19.042Z,-2.03
2022-12-13T08:08:45.445Z,-2.01
2022-12-13T08:11:13.097Z,-2.02
2022-12-13T08:13:39.547Z,-1.98
2022-12-13T08:16:26.724Z,-2.00
2022-12-13T08:19:01.873Z,-1.97
2022-12-13T08:21:57.875Z,-1.96
2022-12-13T08:24:29.150Z,-1.98
2022-12-13T08:26:57.172Z,-2.06
2022-12-13T08:29:34.567Z,-2.10
2022-12-13T08:32:08.940Z,-2.16
2022-12-13T08:34:35.355Z,-2.17
2022-12-13T08:37:03.659Z,-2.18
2022-12-13T08:39:35.695Z,-2.18
2022-12-13T08:42:15.123Z,-2.19
2022-12-13T08:44:44.197Z,-2.22
2022-12-13T08:47:10.629Z,-2.21
2022-12-13T08:49:37.005Z,-2.19
2022-12-13T08:52:03.508Z,-2.19
2022-12-13T08:54:33.077Z,-2.12
2022-12-13T08:56:59.530Z,-2.11
2022-12-13T08:59:25.906Z,-2.08
2022-12-13T09:01:53.764Z,-2.02
2022-12-13T09:04:31.377Z,-1.99
2022-12-13T09:06:58.569Z,-1.93
2022-12-13T09:09:28.890Z,-1.86
2022-12-13T09:11:59.473Z,-1.81
2022-12-13T09:14:27.167Z,-1.80
2022-12-13T09:17:02.804Z,-1.84
2022-12-13T09:19:30.300Z,-1.83
2022-12-13T09:22:04.515Z,-1.86
2022-12-13T09:24:36.737Z,-1.85
2022-12-13T09:27:09.230Z,-1.78
2022-12-13T09:29:36.589Z,-1.74
2022-12-13T09:32:03.046Z,-1.64
2022-12-13T09:34:29.614Z,-1.52
2022-12-13T09:36:56.073Z,-1.42
2022-12-13T09:39:28.312Z,-1.28
2022-12-13T09:42:00.759Z,-1.17
2022-12-13T09:44:32.838Z,-1.14
2022-12-13T09:47:13.967Z,-1.11
2022-12-13T09:49:52.123Z,-1.13
2022-12-13T09:52:22.027Z,-1.17
2022-12-13T09:54:49.512Z,-1.14
2022-12-13T09:57:34.640Z,-1.11
2022-12-13T10:00:05.486Z,-1.04
2022-12-13T10:02:32.122Z,-0.98
2022-12-13T10:05:39.854Z,-0.94
2022-12-13T10:08:18.539Z,-0.88
2022-12-13T10:10:44.939Z,-0.84
2022-12-13T10:13:29.234Z,-0.81
2022-12-13T10:15:58.912Z,-0.82
2022-12-13T10:18:34.035Z,-0.79
2022-12-13T10:21:02.678Z,-0.84
2022-12-13T10:23:52.402Z,-0.82
2022-12-13T10:26:23.853Z,-0.78
2022-12-13T10:28:50.551Z,-0.71
2022-12-13T10:31:20.103Z,-0.70
2022-12-13T10:33:56.096Z,-0.71
2022-12-13T10:36:32.931Z,-0.76
2022-12-13T10:38:59.622Z,-0.78
2022-12-13T10:41:30.470Z,-0.80
2022-12-13T10:44:15.128Z,-0.81
2022-12-13T10:47:04.550Z,-0.79
2022-12-13T10:49:58.934Z,-0.81
2022-12-13T10:52:52.431Z,-0.93
2022-12-13T10:55:26.074Z,-0.95
2022-12-13T10:57:53.100Z,-0.94
2022-12-13T11:00:40.402Z,-0.94
2022-12-13T11:03:07.490Z,-0.96
2022-12-13T11:05:35.182Z,-0.94
2022-12-13T11:08:15.632Z,-0.90
2022-12-13T11:10:42.069Z,-0.83
2022-12-13T11:13:08.449Z,-0.78
2022-12-13T11:15:35.954Z,-0.74
2022-12-13T11:18:04.695Z,-0.76
2022-12-13T11:20:33.462Z,-0.70
2022-12-13T11:23:02.545Z,-0.70
2022-12-13T11:25:33.659Z,-0.67
2022-12-13T11:28:26.314Z,-0.64
2022-12-13T11:31:31.815Z,-0.56
2022-12-13T11:34:23.381Z,-0.55
2022-12-13T11:37:15.036Z,-0.53
2022-12-13T11:39:53.326Z,-0.52
2022-12-13T11:43:03.568Z,-0.50
2022-12-13T11:45:44.617Z,-0.48
2022-12-13T11:48:21.169Z,-0.43
2022-12-13T11:50:49.080Z,-0.40
2022-12-13T11:53:32.047Z,-0.39
2022-12-13T11:56:15.990Z,-0.35
2022-12-13T11:59:04.978Z,-0.38
2022-12-13T12:02:06.651Z,-0.44
2022-12-13T12:04:54.910Z,-0.49
2022-12-13T12:07:33.775Z,-0.48
2022-12-13T12:10:26.527Z,-0.46
2022-12-13T12:13:09.857Z,-0.41
2022-12-13T12:15:41.766Z,-0.35
2022-12-13T12:18:14.250Z,-0.33
2022-12-13T12:20:46.706Z,-0.30
2022-12-13T12:23:29.830Z,-0.27
2022-12-13T12:26:02.458Z,-0.20
2022-12-13T12:28:43.980Z,-0.07
2022-12-13T12:31:20.022Z,0.04
2022-12-13T12:33:50.734Z,0.07
2022-12-13T12:36:35.752Z,0.04
2022-12-13T12:39:08.516Z,0.02
2022-12-13T12:41:50.068Z,0.01
2022-12-13T12:44:41.893Z,0.00
2022-12-13T12:50:31.088Z,-0.02
2022-12-13T12:53:06.953Z,-0.02
2022-12-13T12:55:51.133Z,-0.01
2022-12-13T12:58:20.123Z,-0.01
2022-12-13T13:01:01.636Z,-0.05
2022-12-13T13:03:29.476Z,-0.06
2022-12-13T13:06:02.726Z,-0.08
2022-12-13T13:08:38.399Z,-0.06
2022-12-13T13:11:05.342Z,-0.03
2022-12-13T13:14:30.850Z,-0.02
2022-12-13T13:17:00.977Z,-0.02
2022-12-13T13:19:36.436Z,0.19
2022-12-13T13:22:02.841Z,0.12
2022-12-13T13:24:30.261Z,0.08
2022-12-13T13:26:57.334Z,0.07
2022-12-13T13:29:27.623Z,0.08
2022-12-13T13:32:03.676Z,0.10
2022-12-13T13:34:34.669Z,0.08
2022-12-13T13:37:01.891Z,0.07
2022-12-13T13:39:28.173Z,0.15
2022-12-13T13:42:07.649Z,0.21
2022-12-13T13:44:46.273Z,0.11
2022-12-13T13:47:21.630Z,-0.03
2022-12-13T13:50:09.330Z,-0.12
2022-12-13T13:52:47.791Z,-0.25
2022-12-13T13:55:38.603Z,-0.30
2022-12-13T13:58:26.685Z,-0.42
2022-12-13T14:01:30.521Z,-0.50
2022-12-13T14:03:59.611Z,-0.52
2022-12-13T14:06:47.910Z,-0.64
2022-12-13T14:09:45.303Z,-0.53
2022-12-13T14:12:49.866Z,-0.57
2022-12-13T14:15:40.419Z,-0.59
2022-12-13T14:18:44.946Z,-0.58
2022-12-13T14:21:33.166Z,-0.57
2022-12-13T14:24:21.426Z,-0.54
2022-12-13T14:27:15.907Z,-0.49
2022-12-13T14:29:47.961Z,-0.51
2022-12-13T14:32:26.339Z,-0.54
2022-12-13T14:34:54.860Z,-0.53
2022-12-13T14:37:32.129Z,-0.52
2022-12-13T14:39:59.482Z,-0.53
2022-12-13T14:42:26.735Z,-0.69
2022-12-13T14:44:53.186Z,-0.58
2022-12-13T14:47:20.185Z,-0.65
2022-12-13T14:49:49.168Z,-0.75
2022-12-13T14:52:29.286Z,-0.79
2022-12-13T14:54:58.759Z,-0.85
2022-12-13T14:57:29.673Z,-0.87
2022-12-13T14:59:57.144Z,-0.90
2022-12-13T15:02:30.453Z,-0.99
2022-12-13T15:05:02.779Z,-1.06
2022-12-13T15:07:40.866Z,-1.12
2022-12-13T15:10:27.979Z,-1.22
2022-12-13T15:12:54.571Z,-1.28
2022-12-13T15:15:27.248Z,-1.36
2022-12-13T15:18:22.621Z,-1.40
2022-12-13T15:20:51.163Z,-1.45
2022-12-13T15:23:31.758Z,-1.49
2022-12-13T15:26:11.202Z,-1.54
2022-12-13T15:28:40.329Z,-1.60
2022-12-13T15:31:06.830Z,-1.60
2022-12-13T15:33:37.923Z,-1.58
2022-12-13T15:36:25.806Z,-1.69
2022-12-13T15:38:55.230Z,-1.73
2022-12-13T15:41:36.609Z,-1.78
2022-12-13T15:44:05.737Z,-1.88
2022-12-13T15:46:34.722Z,-1.93
2022-12-13T15:49:02.737Z,-1.92
2022-12-13T15:51:32.692Z,-1.98
2022-12-13T15:54:11.180Z,-2.06
2022-12-13T15:56:38.186Z,-2.03
2022-12-13T15:59:06.090Z,-2.09
2022-12-13T16:01:34.282Z,-2.10
2022-12-13T16:04:00.735Z,-2.11
2022-12-13T16:06:28.154Z,-2.15
2022-12-13T16:08:57.957Z,-2.21
2022-12-13T16:11:34.629Z,-2.23
2022-12-13T16:14:49.300Z,-2.19
2022-12-13T16:17:25.447Z,-2.14
2022-12-13T16:19:53.323Z,-2.08
2022-12-13T16:22:19.950Z,-2.12
2022-12-13T16:24:46.360Z,-2.18
2022-12-13T16:27:12.795Z,-2.28
2022-12-13T16:29:39.203Z,-2.36
2022-12-13T16:32:09.036Z,-2.33
2022-12-13T16:34:35.995Z,-2.30
2022-12-13T16:37:02.503Z,-2.36
2022-12-13T16:39:36.112Z,-2.39
2022-12-13T16:42:02.539Z,-2.33
2022-12-13T16:44:36.502Z,-2.31
2022-12-13T16:47:11.503Z,-2.28
2022-12-13T16:49:42.134Z,-2.23
2022-12-13T16:52:08.537Z,-2.13
2022-12-13T16:54:34.929Z,-2.14
2022-12-13T16:57:01.403Z,-2.14
2022-12-13T16:59:27.881Z,-2.12
2022-12-13T17:01:54.325Z,-2.09
2022-12-13T17:04:21.967Z,-2.13
2022-12-13T17:06:51.302Z,-2.11
2022-12-13T17:09:21.706Z,-2.07
2022-12-13T17:11:48.104Z,-2.10
2022-12-13T17:14:14.544Z,-2.18
2022-12-13T17:16:40.982Z,-2.22
2022-12-13T17:19:07.424Z,-2.19
2022-12-13T17:21:33.828Z,-2.19
2022-12-13T17:24:00.890Z,-2.23
2022-12-13T17:26:27.926Z,-2.25
2022-12-13T17:28:54.480Z,-2.21
2022-12-13T17:31:21.038Z,-2.29
2022-12-13T17:33:47.513Z,-2.23
2022-12-13T17:36:14.820Z,-2.28
2022-12-13T17:38:42.370Z,-2.24
2022-12-13T17:41:08.778Z,-2.27
2022-12-13T17:43:35.837Z,-2.29
2022-12-13T17:46:07.471Z,-2.31
2022-12-13T17:48:39.808Z,-2.34
2022-12-13T17:51:08.116Z,-2.34
2022-12-13T17:53:34.509Z,-2.35
2022-12-13T17:56:02.618Z,-2.35
2022-12-13T17:58:29.512Z,-2.34
2022-12-13T18:00:56.067Z,-2.32
2022-12-13T18:03:22.677Z,-2.26
2022-12-13T18:05:56.521Z,-2.24
2022-12-13T18:08:22.953Z,-2.27
2022-12-13T18:11:15.696Z,-2.27
2022-12-13T18:13:42.403Z,-2.30
2022-12-13T18:16:10.629Z,-2.30
2022-12-13T18:18:37.114Z,-2.27
2022-12-13T18:21:10.253Z,-2.32
2022-12-13T18:23:36.775Z,-2.37
2022-12-13T18:26:04.958Z,-2.42
2022-12-13T18:28:31.411Z,-2.49
2022-12-13T18:31:18.650Z,-2.57
2022-12-13T18:33:47.609Z,-2.60
2022-12-13T18:36:16.795Z,-2.64
2022-12-13T18:38:43.337Z,-2.66
2022-12-13T18:41:11.008Z,-2.73
2022-12-13T18:43:37.395Z,-2.78
2022-12-13T18:46:04.125Z,-2.80
2022-12-13T18:48:30.796Z,-2.81
2022-12-13T18:51:01.032Z,-2.80
2022-12-13T18:53:28.215Z,-2.83
2022-12-13T18:56:12.918Z,-2.88
2022-12-13T18:58:44.088Z,-2.90
2022-12-13T19:01:11.337Z,-2.90
2022-12-13T19:03:38.044Z,-2.91
2022-12-13T19:06:04.933Z,-2.92
2022-12-13T19:08:34.517Z,-2.94
2022-12-13T19:11:01.268Z,-2.97
2022-12-13T19:13:28.241Z,-2.96
2022-12-13T19:15:56.094Z,-3.00
2022-12-13T19:18:22.616Z,-3.01
2022-12-13T19:20:50.286Z,-3.00
2022-12-13T19:23:16.816Z,-2.98
2022-12-13T19:25:43.366Z,-3.00
2022-12-13T19:28:10.290Z,-3.04
2022-12-13T19:30:36.806Z,-3.04
2022-12-13T19:33:03.618Z,-3.05
2022-12-13T19:35:30.006Z,-3.07
2022-12-13T19:37:56.388Z,-3.04
2022-12-13T19:40:22.826Z,-3.07
2022-12-13T19:42:49.206Z,-3.09
2022-12-13T19:45:15.617Z,-3.07
2022-12-13T19:47:42.016Z,-3.09
2022-12-13T19:50:14.320Z,-3.08
2022-12-13T19:52:40.697Z,-3.11
2022-12-13T19:55:07.188Z,-3.09
2022-12-13T19:57:33.565Z,-3.09
2022-12-13T19:59:59.997Z,-3.14
2022-12-13T20:02:26.518Z,-3.17
2022-12-13T20:04:53.330Z,-3.19
2022-12-13T20:07:20.313Z,-3.24
2022-12-13T20:09:46.721Z,-3.25
2022-12-13T20:12:13.152Z,-3.24
2022-12-13T20:14:39.541Z,-3.20
2022-12-13T20:17:05.958Z,-3.21
2022-12-13T20:19:32.337Z,-3.22
2022-12-13T20:21:58.740Z,-3.21
2022-12-13T20:24:25.129Z,-3.16
2022-12-13T20:26:51.564Z,-3.22
2022-12-13T20:29:17.955Z,-3.29
2022-12-13T20:31:48.453Z,-3.30
2022-12-13T20:34:15.529Z,-3.27
2022-12-13T20:36:41.980Z,-3.32
2022-12-13T20:39:08.822Z,-3.32
2022-12-13T20:41:35.642Z,-3.34
2022-12-13T20:44:04.554Z,-3.37
2022-12-13T20:46:31.455Z,-3.39
2022-12-13T20:48:58.542Z,-3.40
2022-12-13T20:51:26.332Z,-3.40
2022-12-13T20:53:52.882Z,-3.37
2022-12-13T20:56:26.862Z,-3.41
2022-12-13T20:58:53.308Z,-3.42
2022-12-13T21:01:21.540Z,-3.40
2022-12-13T21:03:48.009Z,-3.43
2022-12-13T21:06:14.420Z,-3.49
2022-12-13T21:08:40.806Z,-3.54
2022-12-13T21:11:07.218Z,-3.57
2022-12-13T21:13:33.605Z,-3.59
2022-12-13T21:16:05.812Z,-3.65
2022-12-13T21:18:32.236Z,-3.65
2022-12-13T21:20:58.689Z,-3.69
2022-12-13T21:23:25.956Z,-3.77
2022-12-13T21:25:52.595Z,-3.82
2022-12-13T21:28:19.052Z,-3.83
2022-12-13T21:30:45.427Z,-3.83
2022-12-13T21:33:11.872Z,-3.85
2022-12-13T21:35:38.277Z,-3.89
2022-12-13T21:38:05.574Z,-3.88
2022-12-13T21:40:32.118Z,-3.89
2022-12-13T21:42:58.533Z,-3.91
2022-12-13T21:45:24.944Z,-3.88
2022-12-13T21:47:51.429Z,-3.87
2022-12-13T21:50:17.902Z,-3.89
2022-12-13T21:52:49.521Z,-3.92
2022-12-13T21:55:38.360Z,-3.92
2022-12-13T21:58:07.499Z,-3.92
2022-12-13T22:00:35.244Z,-3.92
2022-12-13T22:03:01.654Z,-3.92
2022-12-13T22:05:28.081Z,-3.93
2022-12-13T22:07:54.478Z,-3.93
2022-12-13T22:10:20.887Z,-3.97
2022-12-13T22:12:47.268Z,-3.88
2022-12-13T22:15:15.115Z,-3.81
2022-12-13T22:17:42.087Z,-3.83
2022-12-13T22:20:12.842Z,-3.87
2022-12-13T22:22:39.865Z,-3.87
2022-12-13T22:25:06.800Z,-3.89
2022-12-13T22:27:33.253Z,-3.92
2022-12-13T22:29:59.663Z,-3.94
2022-12-13T22:32:26.798Z,-3.93
2022-12-13T22:34:53.213Z,-3.88
2022-12-13T22:37:19.771Z,-3.83
2022-12-13T22:39:46.168Z,-3.81
2022-12-13T22:42:12.574Z,-3.82
2022-12-13T22:44:39.005Z,-3.83
2022-12-13T22:47:05.398Z,-3.81
2022-12-13T22:49:31.827Z,-3.77
2022-12-13T22:51:58.225Z,-3.73
2022-12-13T22:54:24.627Z,-3.72
2022-12-13T22:56:51.364Z,-3.65
2022-12-13T22:59:17.762Z,-3.67
2022-12-13T23:01:47.000Z,-3.72
2022-12-13T23:04:13.933Z,-3.71
2022-12-13T23:06:40.489Z,-3.70
2022-12-13T23:09:08.540Z,-3.72
2022-12-13T23:11:34.992Z,-3.70
2022-12-13T23:14:02.484Z,-3.71
2022-12-13T23:16:30.523Z,-3.65
2022-12-13T23:19:10.932Z,-3.67
2022-12-13T23:21:43.539Z,-3.67
2022-12-13T23:24:15.052Z,-3.68
2022-12-13T23:26:41.453Z,-3.67
2022-12-13T23:29:08.122Z,-3.65
2022-12-13T23:31:36.317Z,-3.68
2022-12-13T23:34:02.758Z,-3.70
2022-12-13T23:36:29.276Z,-3.70
2022-12-13T23:39:00.330Z,-3.74
2022-12-13T23:41:33.349Z,-3.78
2022-12-13T23:44:00.224Z,-3.87
2022-12-13T23:46:28.488Z,-3.91
2022-12-13T23:48:55.147Z,-3.92
2022-12-13T23:51:21.551Z,-3.94
2022-12-13T23:53:48.001Z,-3.95
2022-12-13T23:56:15.372Z,-3.90
2022-12-13T23:58:42.296Z,-3.88
